Time;durP1;ratioP1;P1;durP2;ratioP2;P2;SDS_P1;SDS_P2;PMS_P1;PMS_P2;Temp;Humidity;BMP_temperature;BMP_pressure;BME280_temperature;BME280_humidity;BME280_pressure;Samples;Min_cycle;Max_cycle;Signal;HPM_P1;HPM_P2
2021/08/16 00:01:47;;;;;;;4.68;2.28;;;;;;;;;;5086668;28;20028;-62
2021/08/16 00:04:13;;;;;;;7.18;2.38;;;;;;;;;;5087691;28;20020;-63
2021/08/16 00:06:38;;;;;;;4.93;2.38;;;;;;;;;;5068239;28;20029;-62
2021/08/16 00:09:07;;;;;;;4.32;2.20;;;;;;;;;;5065462;28;20725;-63
2021/08/16 00:11:32;;;;;;;5.05;2.67;;;;;;;;;;5066997;28;20032;-62
2021/08/16 00:13:58;;;;;;;5.40;2.42;;;;;;;;;;5067459;28;20021;-63
2021/08/16 00:16:27;;;;;;;6.30;2.40;;;;;;;;;;5066339;28;20079;-63
2021/08/16 00:18:55;;;;;;;6.65;3.05;;;;;;;;;;5067264;28;20029;-63
2021/08/16 00:21:20;;;;;;;4.90;2.58;;;;;;;;;;5075616;28;20028;-62
2021/08/16 00:23:46;;;;;;;5.82;3.40;;;;;;;;;;5087973;28;20026;-62
2021/08/16 00:26:12;;;;;;;6.30;3.35;;;;;;;;;;5081758;28;20370;-62
2021/08/16 00:28:38;;;;;;;5.85;2.80;;;;;;;;;;5084859;28;20077;-63
2021/08/16 00:31:03;;;;;;;8.52;4.07;;;;;;;;;;5086303;28;20035;-63
2021/08/16 00:33:28;;;;;;;4.88;3.20;;;;;;;;;;5087739;28;20043;-63
2021/08/16 00:35:54;;;;;;;6.78;3.17;;;;;;;;;;5070837;28;20040;-64
2021/08/16 00:38:19;;;;;;;7.20;3.22;;;;;;;;;;5067580;28;20393;-63
2021/08/16 00:40:44;;;;;;;9.23;3.22;;;;;;;;;;5067161;28;20082;-63
2021/08/16 00:43:10;;;;;;;6.25;3.30;;;;;;;;;;5067752;28;20634;-62
2021/08/16 00:45:36;;;;;;;7.65;2.70;;;;;;;;;;5066942;28;20024;-63
2021/08/16 00:48:01;;;;;;;6.45;2.83;;;;;;;;;;5067244;28;20694;-63
2021/08/16 00:50:27;;;;;;;4.53;2.72;;;;;;;;;;5070257;28;20038;-63
2021/08/16 00:52:52;;;;;;;9.90;3.03;;;;;;;;;;5086381;28;20055;-63
2021/08/16 00:55:19;;;;;;;6.90;3.00;;;;;;;;;;5085671;28;20046;-63
2021/08/16 00:57:44;;;;;;;7.13;2.95;;;;;;;;;;5088106;28;20020;-62
2021/08/16 01:00:11;;;;;;;7.53;3.28;;;;;;;;;;5087063;28;20054;-63
2021/08/16 01:02:39;;;;;;;5.95;3.00;;;;;;;;;;5085189;28;20032;-63
2021/08/16 01:05:06;;;;;;;4.28;2.75;;;;;;;;;;5078916;28;20068;-63
2021/08/16 01:07:32;;;;;;;5.18;2.88;;;;;;;;;;5066700;28;20434;-62
2021/08/16 01:09:58;;;;;;;5.70;2.97;;;;;;;;;;5065674;28;20027;-63
2021/08/16 01:12:25;;;;;;;5.45;2.88;;;;;;;;;;5066611;28;20029;-63
2021/08/16 01:14:50;;;;;;;7.43;2.80;;;;;;;;;;5068425;28;20020;-63
2021/08/16 01:17:16;;;;;;;7.00;3.10;;;;;;;;;;5066970;28;20063;-63
2021/08/16 01:19:41;;;;;;;5.82;2.60;;;;;;;;;;5065932;28;20082;-63
2021/08/16 01:22:07;;;;;;;7.35;2.67;;;;;;;;;;5086740;28;20060;-63
2021/08/16 01:24:33;;;;;;;4.53;2.72;;;;;;;;;;5087453;28;20024;-63
2021/08/16 01:27:09;;;;;;;6.20;2.97;;;;;;;;;;5081651;28;20043;-63
2021/08/16 01:29:34;;;;;;;4.50;2.95;;;;;;;;;;5086568;28;20500;-63
2021/08/16 01:32:00;;;;;;;7.75;3.90;;;;;;;;;;5086680;28;20032;-62
2021/08/16 01:34:26;;;;;;;8.18;3.72;;;;;;;;;;5084913;28;20098;-62
2021/08/16 01:36:53;;;;;;;8.73;3.43;;;;;;;;;;5065113;28;20052;-63
2021/08/16 01:39:18;;;;;;;8.60;4.20;;;;;;;;;;5066994;28;20029;-63
2021/08/16 01:41:47;;;;;;;6.38;3.33;;;;;;;;;;5068796;28;20028;-63
2021/08/16 01:44:14;;;;;;;6.38;3.70;;;;;;;;;;5070242;28;20031;-62
2021/08/16 01:46:41;;;;;;;8.93;3.78;;;;;;;;;;5086524;28;20024;-63
2021/08/16 01:49:08;;;;;;;8.20;3.20;;;;;;;;;;5089333;28;20127;-63
2021/08/16 01:51:33;;;;;;;6.57;3.38;;;;;;;;;;5089491;28;20278;-62
2021/08/16 01:53:59;;;;;;;8.43;2.78;;;;;;;;;;5092646;28;20539;-62
2021/08/16 01:56:24;;;;;;;7.13;2.90;;;;;;;;;;5090983;28;20054;-62
2021/08/16 01:58:49;;;;;;;7.85;2.90;;;;;;;;;;5094692;28;20032;-62
2021/08/16 02:01:15;;;;;;;4.72;2.90;;;;;;;;;;5093836;28;20036;-63
2021/08/16 02:03:40;;;;;;;4.40;2.67;;;;;;;;;;5093403;28;20030;-62
2021/08/16 02:06:06;;;;;;;4.57;2.75;;;;;;;;;;5075796;28;20047;-62
2021/08/16 02:08:31;;;;;;;4.30;2.70;;;;;;;;;;5073123;28;20028;-62
2021/08/16 02:10:56;;;;;;;5.78;2.67;;;;;;;;;;5073283;28;20028;-63
2021/08/16 02:13:22;;;;;;;6.13;2.92;;;;;;;;;;5071545;28;20105;-62
2021/08/16 02:15:47;;;;;;;7.30;3.15;;;;;;;;;;5071737;28;20039;-62
2021/08/16 02:18:12;;;;;;;6.47;3.10;;;;;;;;;;5074744;28;20104;-63
2021/08/16 02:20:38;;;;;;;5.50;2.85;;;;;;;;;;5080604;28;20077;-62
2021/08/16 02:23:03;;;;;;;4.93;2.13;;;;;;;;;;5093966;28;20024;-63
2021/08/16 02:25:29;;;;;;;5.65;2.30;;;;;;;;;;5092883;28;20103;-63
2021/08/16 02:27:54;;;;;;;5.75;2.47;;;;;;;;;;5089342;28;20054;-63
2021/08/16 02:30:20;;;;;;;5.65;1.80;;;;;;;;;;5091537;28;20111;-63
2021/08/16 02:32:46;;;;;;;3.75;1.90;;;;;;;;;;5080361;28;21235;-62
2021/08/16 02:35:12;;;;;;;3.00;1.70;;;;;;;;;;5072707;28;20131;-63
2021/08/16 02:37:38;;;;;;;4.00;1.95;;;;;;;;;;5073019;28;20062;-63
2021/08/16 02:40:05;;;;;;;4.78;1.50;;;;;;;;;;5072052;28;20556;-62
2021/08/16 02:42:30;;;;;;;9.13;1.95;;;;;;;;;;5073868;28;20044;-63
2021/08/16 02:44:56;;;;;;;4.78;1.70;;;;;;;;;;5072019;28;20056;-63
2021/08/16 02:47:22;;;;;;;5.13;1.85;;;;;;;;;;5073474;28;20566;-63
2021/08/16 02:49:50;;;;;;;4.82;1.65;;;;;;;;;;5072447;28;20779;-62
2021/08/16 02:52:17;;;;;;;3.90;1.58;;;;;;;;;;5092746;28;20073;-63
2021/08/16 02:54:45;;;;;;;3.20;1.43;;;;;;;;;;5092060;28;20031;-63
2021/08/16 02:57:12;;;;;;;3.70;1.38;;;;;;;;;;5090625;28;20068;-62
2021/08/16 02:59:39;;;;;;;;;;;;;;;;;;5091921;28;20028;-62
2021/08/16 03:02:04;;;;;;;4.03;1.80;;;;;;;;;;5093556;28;19908;-63
2021/08/16 03:04:29;;;;;;;5.65;1.50;;;;;;;;;;5089810;28;20024;-62
2021/08/16 03:06:55;;;;;;;2.53;1.17;;;;;;;;;;5072421;28;20028;-63
2021/08/16 03:09:24;;;;;;;6.13;1.58;;;;;;;;;;5072480;28;20056;-63
2021/08/16 03:11:49;;;;;;;4.53;1.45;;;;;;;;;;5071504;28;20637;-63
2021/08/16 03:14:14;;;;;;;4.05;1.48;;;;;;;;;;5071035;28;20029;-63
2021/08/16 03:16:40;;;;;;;2.92;1.13;;;;;;;;;;5070539;28;20413;-63
2021/08/16 03:19:05;;;;;;;6.97;1.70;;;;;;;;;;5070838;28;20024;-63
2021/08/16 03:21:30;;;;;;;5.18;1.48;;;;;;;;;;5084594;28;20536;-62
2021/08/16 03:23:56;;;;;;;4.53;1.42;;;;;;;;;;5090151;28;20437;-62
2021/08/16 03:26:21;;;;;;;3.47;1.38;;;;;;;;;;5090589;28;20389;-63
2021/08/16 03:28:46;;;;;;;4.72;1.27;;;;;;;;;;5090888;28;20016;-63
2021/08/16 03:31:12;;;;;;;5.10;1.10;;;;;;;;;;5090223;28;20056;-64
2021/08/16 03:33:37;;;;;;;4.10;1.20;;;;;;;;;;5089120;28;20485;-63
2021/08/16 03:36:03;;;;;;;3.90;1.45;;;;;;;;;;5075759;28;20032;-62
2021/08/16 03:38:28;;;;;;;3.17;1.15;;;;;;;;;;5072597;28;20050;-62
2021/08/16 03:40:53;;;;;;;4.18;1.20;;;;;;;;;;5070068;28;20028;-63
2021/08/16 03:43:19;;;;;;;5.22;1.42;;;;;;;;;;5074474;28;20382;-63
2021/08/16 03:45:45;;;;;;;3.92;1.25;;;;;;;;;;5070264;28;20124;-63
2021/08/16 03:48:11;;;;;;;4.53;1.50;;;;;;;;;;5071632;28;20094;-62
2021/08/16 03:50:36;;;;;;;5.47;1.73;;;;;;;;;;4372078;28;10021634;-63
2021/08/16 03:53:02;;;;;;;5.10;1.48;;;;;;;;;;5048922;28;20029;-63
2021/08/16 03:55:27;;;;;;;5.15;1.40;;;;;;;;;;5076817;28;20020;-63
2021/08/16 03:57:52;;;;;;;5.60;1.35;;;;;;;;;;5090644;28;20047;-62
2021/08/16 04:00:18;;;;;;;4.82;1.23;;;;;;;;;;5089867;28;20023;-63
2021/08/16 04:02:45;;;;;;;3.42;1.17;;;;;;;;;;5091894;28;20110;-62
2021/08/16 04:05:11;;;;;;;4.70;1.38;;;;;;;;;;5082811;28;20540;-62
2021/08/16 04:07:37;;;;;;;3.80;1.48;;;;;;;;;;5071223;28;20133;-63
2021/08/16 04:10:03;;;;;;;6.47;1.30;;;;;;;;;;5068975;28;20028;-63
2021/08/16 04:12:28;;;;;;;6.22;1.70;;;;;;;;;;5070484;28;20069;-62
2021/08/16 04:14:53;;;;;;;7.05;1.75;;;;;;;;;;5070570;28;20042;-63
2021/08/16 04:17:19;;;;;;;3.92;1.40;;;;;;;;;;5068606;28;20028;-64
2021/08/16 04:19:44;;;;;;;4.20;1.30;;;;;;;;;;5073534;28;20028;-62
2021/08/16 04:22:10;;;;;;;3.53;1.50;;;;;;;;;;5085646;28;20031;-62
2021/08/16 04:24:35;;;;;;;6.20;1.50;;;;;;;;;;5090588;28;20047;-63
2021/08/16 04:27:01;;;;;;;5.35;1.70;;;;;;;;;;5091072;28;20107;-60
2021/08/16 04:29:26;;;;;;;4.60;1.33;;;;;;;;;;5091441;28;20073;-62
2021/08/16 04:31:52;;;;;;;7.47;1.67;;;;;;;;;;5087131;28;20027;-61
2021/08/16 04:34:17;;;;;;;4.15;1.30;;;;;;;;;;5089567;28;20484;-61
2021/08/16 04:36:42;;;;;;;5.05;1.30;;;;;;;;;;5071522;28;20413;-62
2021/08/16 04:39:08;;;;;;;5.53;1.45;;;;;;;;;;5071480;28;20373;-62
2021/08/16 04:41:33;;;;;;;5.70;1.80;;;;;;;;;;5069816;28;20428;-60
2021/08/16 04:43:58;;;;;;;4.53;1.40;;;;;;;;;;5070205;28;20023;-61
2021/08/16 04:46:26;;;;;;;6.93;1.70;;;;;;;;;;5070541;28;20428;-61
2021/08/16 04:48:51;;;;;;;3.72;1.27;;;;;;;;;;5071607;28;20024;-62
2021/08/16 04:51:17;;;;;;;3.30;1.35;;;;;;;;;;5081555;28;20024;-61
2021/08/16 04:53:42;;;;;;;3.15;1.17;;;;;;;;;;5091787;28;20035;-61
2021/08/16 04:56:07;;;;;;;4.57;1.55;;;;;;;;;;5068953;28;20532;-63
2021/08/16 04:58:33;;;;;;;3.67;1.10;;;;;;;;;;5069907;28;20039;-62
2021/08/16 05:00:58;;;;;;;3.05;1.30;;;;;;;;;;5069890;28;20109;-63
2021/08/16 05:03:24;;;;;;;6.28;1.30;;;;;;;;;;5071400;28;20016;-63
2021/08/16 05:05:53;;;;;;;4.55;1.40;;;;;;;;;;5071793;28;20025;-61
2021/08/16 05:08:18;;;;;;;7.53;1.20;;;;;;;;;;5071567;28;20028;-62
2021/08/16 05:10:45;;;;;;;3.00;1.10;;;;;;;;;;5069951;28;20031;-63
2021/08/16 05:13:11;;;;;;;;;;;;;;;;;;5070899;28;20063;-62
2021/08/16 05:15:38;;;;;;;3.93;1.07;;;;;;;;;;5069668;28;19975;-62
2021/08/16 05:18:04;;;;;;;3.45;0.93;;;;;;;;;;5073219;28;20085;-63
2021/08/16 05:20:29;;;;;;;1.80;0.80;;;;;;;;;;5080069;28;20107;-63
2021/08/16 05:22:55;;;;;;;3.90;1.00;;;;;;;;;;5093999;28;20391;-63
2021/08/16 05:25:21;;;;;;;3.70;1.10;;;;;;;;;;5093774;28;20605;-63
2021/08/16 05:27:48;;;;;;;3.63;1.20;;;;;;;;;;5078734;28;20048;-63
2021/08/16 05:30:14;;;;;;;2.72;1.30;;;;;;;;;;5074244;28;20385;-62
2021/08/16 05:32:40;;;;;;;3.47;0.98;;;;;;;;;;5074367;28;20039;-61
2021/08/16 05:35:07;;;;;;;2.90;1.00;;;;;;;;;;5074869;28;20028;-63
2021/08/16 05:37:32;;;;;;;3.20;0.75;;;;;;;;;;5077417;28;20047;-62
2021/08/16 05:39:58;;;;;;;1.77;0.80;;;;;;;;;;5073897;28;20036;-61
2021/08/16 05:42:23;;;;;;;5.55;1.13;;;;;;;;;;5073989;28;20382;-61
2021/08/16 05:44:49;;;;;;;3.50;1.10;;;;;;;;;;5072849;28;20042;-62
2021/08/16 05:47:18;;;;;;;3.13;0.98;;;;;;;;;;5074269;28;20432;-63
2021/08/16 05:49:44;;;;;;;3.08;1.00;;;;;;;;;;5073097;28;20116;-61
2021/08/16 05:52:09;;;;;;;3.80;1.02;;;;;;;;;;5074987;28;20107;-61
2021/08/16 05:54:35;;;;;;;3.50;1.08;;;;;;;;;;5072524;28;20033;-64
2021/08/16 05:57:00;;;;;;;3.72;1.23;;;;;;;;;;5070940;28;20021;-62
2021/08/16 05:59:26;;;;;;;4.43;1.10;;;;;;;;;;5072787;28;20036;-63
2021/08/16 06:01:51;;;;;;;3.63;1.10;;;;;;;;;;5073653;28;20047;-64
2021/08/16 06:04:16;;;;;;;5.25;1.10;;;;;;;;;;5072867;28;20028;-62
2021/08/16 06:06:42;;;;;;;5.10;1.27;;;;;;;;;;5073934;28;20055;-63
2021/08/16 06:09:07;;;;;;;2.78;1.23;;;;;;;;;;5073809;28;20401;-63
2021/08/16 06:11:33;;;;;;;4.50;1.35;;;;;;;;;;5073374;28;20016;-62
2021/08/16 06:13:58;;;;;;;6.25;1.23;;;;;;;;;;5071488;28;20024;-64
2021/08/16 06:16:24;;;;;;;5.57;1.38;;;;;;;;;;5073252;28;20029;-62
2021/08/16 06:18:51;;;;;;;3.90;1.20;;;;;;;;;;5073784;28;20111;-63
2021/08/16 06:21:16;;;;;;;;;;;;;;;;;;5085714;28;20024;-61
2021/08/16 06:23:42;;;;;;;3.33;1.10;;;;;;;;;;5093825;28;19922;-61
2021/08/16 06:26:10;;;;;;;4.05;1.40;;;;;;;;;;5088635;28;20095;-61
2021/08/16 06:28:35;;;;;;;4.15;1.10;;;;;;;;;;5078489;28;20193;-63
2021/08/16 06:31:02;;;;;;;5.30;1.10;;;;;;;;;;5075285;28;20111;-62
2021/08/16 06:33:27;;;;;;;5.30;1.05;;;;;;;;;;5073694;28;20048;-63
2021/08/16 06:35:54;;;;;;;6.00;1.15;;;;;;;;;;5070203;28;20131;-63
2021/08/16 06:38:22;;;;;;;4.40;1.30;;;;;;;;;;5073213;28;20107;-63
2021/08/16 06:40:48;;;;;;;2.40;0.98;;;;;;;;;;5071060;28;20029;-63
2021/08/16 06:43:14;;;;;;;4.10;1.17;;;;;;;;;;5062651;28;20021;-63
2021/08/16 06:45:39;;;;;;;3.55;1.17;;;;;;;;;;5069364;28;20036;-61
2021/08/16 06:48:05;;;;;;;2.83;0.95;;;;;;;;;;5071398;28;20107;-62
2021/08/16 06:50:30;;;;;;;2.58;1.10;;;;;;;;;;5062359;28;20111;-62
2021/08/16 06:52:55;;;;;;;3.42;1.10;;;;;;;;;;5092909;28;20027;-63
2021/08/16 06:55:20;;;;;;;4.60;1.00;;;;;;;;;;5092450;28;20020;-60
2021/08/16 06:57:46;;;;;;;5.22;1.05;;;;;;;;;;5092561;28;20031;-63
2021/08/16 07:00:12;;;;;;;4.10;1.20;;;;;;;;;;5091170;28;20043;-62
2021/08/16 07:02:39;;;;;;;4.20;1.20;;;;;;;;;;5092850;28;20509;-63
2021/08/16 07:05:06;;;;;;;4.22;1.10;;;;;;;;;;5085215;28;20019;-62
2021/08/16 07:07:32;;;;;;;1.90;0.80;;;;;;;;;;5072449;28;20024;-62
2021/08/16 07:09:57;;;;;;;2.83;1.05;;;;;;;;;;5071199;28;20039;-64
2021/08/16 07:12:22;;;;;;;3.65;1.23;;;;;;;;;;5071402;28;20112;-61
2021/08/16 07:14:48;;;;;;;4.28;1.25;;;;;;;;;;5069515;28;20491;-63
2021/08/16 07:17:14;;;;;;;4.18;1.23;;;;;;;;;;5070911;28;20059;-62
2021/08/16 07:19:39;;;;;;;4.63;1.20;;;;;;;;;;5069085;28;20040;-61
2021/08/16 07:22:04;;;;;;;3.75;0.90;;;;;;;;;;5070836;28;20025;-61
2021/08/16 07:24:29;;;;;;;4.28;1.00;;;;;;;;;;5070133;28;20488;-60
2021/08/16 07:26:55;;;;;;;4.28;1.00;;;;;;;;;;5069279;28;20577;-62
2021/08/16 07:29:20;;;;;;;6.05;1.10;;;;;;;;;;5072981;28;20539;-61
2021/08/16 07:31:46;;;;;;;3.95;1.23;;;;;;;;;;5078336;28;20519;-63
2021/08/16 07:34:11;;;;;;;2.80;0.95;;;;;;;;;;5090140;28;20139;-61
2021/08/16 07:36:36;;;;;;;5.18;1.20;;;;;;;;;;5069730;28;20028;-62
2021/08/16 07:39:02;;;;;;;4.10;1.10;;;;;;;;;;5063308;28;20029;-62
2021/08/16 07:41:28;;;;;;;4.30;1.20;;;;;;;;;;5070434;28;20107;-62
2021/08/16 07:43:53;;;;;;;4.05;1.10;;;;;;;;;;5072446;28;20490;-61
2021/08/16 07:46:18;;;;;;;2.78;1.00;;;;;;;;;;5070454;28;20028;-60
2021/08/16 07:48:44;;;;;;;3.95;1.00;;;;;;;;;;4713887;28;9999795;-62
2021/08/16 07:51:09;;;;;;;4.95;1.27;;;;;;;;;;5081665;28;20378;-63
2021/08/16 07:53:34;;;;;;;3.03;1.10;;;;;;;;;;5078024;28;20449;-61
2021/08/16 07:56:00;;;;;;;3.53;1.30;;;;;;;;;;5065056;28;20051;-60
2021/08/16 07:58:27;;;;;;;7.50;1.50;;;;;;;;;;5066202;28;20122;-63
2021/08/16 08:00:52;;;;;;;4.38;1.20;;;;;;;;;;5066257;28;20103;-60
2021/08/16 08:03:17;;;;;;;3.00;0.90;;;;;;;;;;5066720;28;20434;-61
2021/08/16 08:05:43;;;;;;;5.45;1.33;;;;;;;;;;5067138;28;20070;-62
2021/08/16 08:08:08;;;;;;;3.67;1.25;;;;;;;;;;5066786;28;20533;-62
2021/08/16 08:10:33;;;;;;;4.30;1.38;;;;;;;;;;5067184;28;20032;-60
2021/08/16 08:12:59;;;;;;;3.40;1.30;;;;;;;;;;5067633;28;20111;-60
2021/08/16 08:15:24;;;;;;;4.82;1.67;;;;;;;;;;5067407;28;20029;-62
2021/08/16 08:17:50;;;;;;;5.18;1.38;;;;;;;;;;5067291;28;20025;-62
2021/08/16 08:20:15;;;;;;;3.47;1.10;;;;;;;;;;5071098;28;20028;-61
2021/08/16 08:22:41;;;;;;;5.32;1.30;;;;;;;;;;5088857;28;20069;-63
2021/08/16 08:25:07;;;;;;;8.13;1.60;;;;;;;;;;5087143;28;20035;-62
2021/08/16 08:27:32;;;;;;;4.95;1.30;;;;;;;;;;5084184;28;20051;-60
2021/08/16 08:29:57;;;;;;;5.28;1.33;;;;;;;;;;5086600;28;20086;-61
2021/08/16 08:32:23;;;;;;;3.35;1.30;;;;;;;;;;5087173;28;20028;-62
2021/08/16 08:34:48;;;;;;;6.53;1.30;;;;;;;;;;5082487;28;20105;-62
2021/08/16 08:37:14;;;;;;;6.00;1.38;;;;;;;;;;5069831;28;20078;-60
2021/08/16 08:39:42;;;;;;;7.97;1.60;;;;;;;;;;5068485;28;20432;-61
2021/08/16 08:42:07;;;;;;;6.70;1.50;;;;;;;;;;5062862;28;20036;-61
2021/08/16 08:44:35;;;;;;;4.35;1.33;;;;;;;;;;5065495;28;20031;-61
2021/08/16 08:47:00;;;;;;;5.93;1.58;;;;;;;;;;5066667;28;20060;-60
2021/08/16 08:49:26;;;;;;;4.07;1.50;;;;;;;;;;5061758;28;20687;-60
2021/08/16 08:51:51;;;;;;;5.60;1.70;;;;;;;;;;5069906;28;20477;-62
2021/08/16 08:54:19;;;;;;;8.13;1.90;;;;;;;;;;5068306;28;20036;-62
2021/08/16 08:56:44;;;;;;;5.68;1.58;;;;;;;;;;5065306;28;21125;-60
2021/08/16 08:59:11;;;;;;;8.43;1.75;;;;;;;;;;5071370;28;20082;-61
2021/08/16 09:01:37;;;;;;;5.47;1.55;;;;;;;;;;5068439;28;20107;-62
2021/08/16 09:04:03;;;;;;;7.88;1.70;;;;;;;;;;5068053;28;20041;-63
2021/08/16 09:06:30;;;;;;;6.38;1.67;;;;;;;;;;5065222;28;20020;-59
2021/08/16 09:08:57;;;;;;;9.57;1.75;;;;;;;;;;5066921;28;20740;-60
2021/08/16 09:11:24;;;;;;;7.50;1.80;;;;;;;;;;5059883;28;20024;-60
2021/08/16 09:13:59;;;;;;;5.82;1.70;;;;;;;;;;5067153;28;20073;-62
2021/08/16 09:16:26;;;;;;;7.63;2.17;;;;;;;;;;5067695;28;20040;-61
2021/08/16 09:18:51;;;;;;;;;;;;;;;;;;5066129;28;20501;-61
2021/08/16 09:21:35;;;;;;;5.90;1.60;;;;;;;;;;5071351;28;19920;-61
2021/08/16 09:24:02;;;;;;;6.28;1.55;;;;;;;;;;5060995;28;20028;-60
2021/08/16 09:26:31;;;;;;;5.47;1.58;;;;;;;;;;5057584;28;20505;-62
2021/08/16 09:29:09;;;;;;;6.75;1.63;;;;;;;;;;5070448;28;20036;-61
2021/08/16 09:31:35;;;;;;;7.20;1.70;;;;;;;;;;5069783;28;20494;-61
2021/08/16 09:34:00;;;;;;;7.47;1.77;;;;;;;;;;5069115;28;20049;-60
2021/08/16 09:36:36;;;;;;;7.85;1.85;;;;;;;;;;5073439;28;20703;-62
2021/08/16 09:39:03;;;;;;;6.60;1.70;;;;;;;;;;5091054;28;20028;-62
2021/08/16 09:41:28;;;;;;;9.38;2.00;;;;;;;;;;5081554;28;20475;-61
2021/08/16 09:44:14;;;;;;;6.30;1.77;;;;;;;;;;5070076;28;20116;-61
2021/08/16 09:46:40;;;;;;;5.70;1.77;;;;;;;;;;5063599;28;20090;-61
2021/08/16 09:49:07;;;;;;;6.28;1.70;;;;;;;;;;5065047;28;20036;-61
2021/08/16 09:51:34;;;;;;;7.55;2.05;;;;;;;;;;5067828;28;20040;-61
2021/08/16 09:54:01;;;;;;;7.57;2.03;;;;;;;;;;5068480;28;20456;-61
2021/08/16 09:56:27;;;;;;;5.28;1.60;;;;;;;;;;5068237;28;20028;-60
2021/08/16 09:58:53;;;;;;;4.65;1.90;;;;;;;;;;5068719;28;20063;-61
2021/08/16 10:01:19;;;;;;;8.57;1.73;;;;;;;;;;5068825;28;20028;-61
2021/08/16 10:03:45;;;;;;;6.45;1.83;;;;;;;;;;5069547;28;20805;-60
2021/08/16 10:06:16;;;;;;;6.28;2.13;;;;;;;;;;5068150;28;20024;-62
2021/08/16 10:08:55;;;;;;;8.45;1.95;;;;;;;;;;5059113;28;20090;-60
2021/08/16 10:11:22;;;;;;;8.07;2.13;;;;;;;;;;5047174;28;20490;-60
2021/08/16 10:13:52;;;;;;;5.68;1.77;;;;;;;;;;5066080;28;20032;-61
2021/08/16 10:16:22;;;;;;;7.07;2.03;;;;;;;;;;5069098;28;20040;-62
2021/08/16 10:18:53;;;;;;;5.45;1.73;;;;;;;;;;5072589;28;20123;-60
2021/08/16 10:21:23;;;;;;;9.15;2.40;;;;;;;;;;5065547;28;20039;-60
2021/08/16 10:23:52;;;;;;;6.85;2.20;;;;;;;;;;5059388;28;20732;-62
2021/08/16 10:26:34;;;;;;;6.35;1.80;;;;;;;;;;5056181;28;20024;-61
2021/08/16 10:29:02;;;;;;;4.85;1.98;;;;;;;;;;5059729;28;20107;-62
2021/08/16 10:31:41;;;;;;;6.00;1.98;;;;;;;;;;5059499;28;20035;-61
2021/08/16 10:34:06;;;;;;;4.85;2.00;;;;;;;;;;5058355;28;20049;-60
2021/08/16 10:36:32;;;;;;;5.13;1.63;;;;;;;;;;5067370;28;20032;-60
2021/08/16 10:39:02;;;;;;;4.78;1.60;;;;;;;;;;5069127;28;20055;-62
2021/08/16 10:41:42;;;;;;;6.82;2.10;;;;;;;;;;5059334;28;20520;-60
2021/08/16 10:44:16;;;;;;;5.35;1.67;;;;;;;;;;5058672;28;20024;-61
2021/08/16 10:46:45;;;;;;;4.85;2.13;;;;;;;;;;5059539;28;20060;-60
2021/08/16 10:49:13;;;;;;;6.60;2.15;;;;;;;;;;5067596;28;20036;-61
2021/08/16 10:51:39;;;;;;;8.30;2.00;;;;;;;;;;5077936;28;20016;-61
2021/08/16 10:54:05;;;;;;;9.98;2.10;;;;;;;;;;5078046;28;20024;-61
2021/08/16 10:56:31;;;;;;;5.10;2.08;;;;;;;;;;5067039;28;20033;-61
2021/08/16 10:58:56;;;;;;;6.72;2.05;;;;;;;;;;5067605;28;20418;-61
2021/08/16 11:01:26;;;;;;;5.25;2.15;;;;;;;;;;5064273;28;20031;-63
2021/08/16 11:03:59;;;;;;;4.32;2.08;;;;;;;;;;5068358;28;20399;-61
2021/08/16 11:06:25;;;;;;;5.55;1.90;;;;;;;;;;5087189;28;20035;-61
2021/08/16 11:09:02;;;;;;;5.90;2.00;;;;;;;;;;5075668;28;20406;-58
2021/08/16 11:11:35;;;;;;;4.18;1.65;;;;;;;;;;5063869;28;20516;-61
2021/08/16 11:14:10;;;;;;;3.35;1.60;;;;;;;;;;5067097;28;20029;-61
2021/08/16 11:16:49;;;;;;;5.32;1.45;;;;;;;;;;5059093;28;20032;-61
2021/08/16 11:19:14;;;;;;;4.38;1.42;;;;;;;;;;5053708;28;20063;-59
2021/08/16 11:21:40;;;;;;;4.95;1.60;;;;;;;;;;5063380;28;20107;-60
2021/08/16 11:24:05;;;;;;;6.80;1.42;;;;;;;;;;5073301;28;20032;-62
2021/08/16 11:26:31;;;;;;;3.22;1.30;;;;;;;;;;5066806;28;20470;-62
2021/08/16 11:29:05;;;;;;;4.22;1.50;;;;;;;;;;5065815;28;20037;-60
2021/08/16 11:31:32;;;;;;;3.53;1.52;;;;;;;;;;5062550;28;20440;-62
2021/08/16 11:34:08;;;;;;;4.07;1.30;;;;;;;;;;5067302;28;20835;-62
2021/08/16 11:36:35;;;;;;;3.17;1.30;;;;;;;;;;5065647;28;20028;-63
2021/08/16 11:39:01;;;;;;;4.55;1.20;;;;;;;;;;5067385;28;20024;-61
2021/08/16 11:41:31;;;;;;;4.68;1.33;;;;;;;;;;5068188;28;20028;-60
2021/08/16 11:43:57;;;;;;;3.38;1.23;;;;;;;;;;5067947;28;20533;-60
2021/08/16 11:46:31;;;;;;;2.47;1.23;;;;;;;;;;5065890;28;20025;-62
2021/08/16 11:48:58;;;;;;;3.67;1.30;;;;;;;;;;5056752;28;20059;-62
2021/08/16 11:51:24;;;;;;;2.90;0.90;;;;;;;;;;5071731;28;20031;-62
2021/08/16 11:53:50;;;;;;;4.95;1.15;;;;;;;;;;5061050;28;20441;-61
2021/08/16 11:56:16;;;;;;;10.85;1.42;;;;;;;;;;5056878;28;20063;-61
2021/08/16 11:58:43;;;;;;;5.05;0.98;;;;;;;;;;5048437;28;20056;-62
2021/08/16 12:01:11;;;;;;;1.20;0.70;;;;;;;;;;5057539;28;20465;-62
2021/08/16 12:03:36;;;;;;;;;;;;;;;;;;5054642;28;20037;-62
2021/08/16 12:06:10;;;;;;;1.67;0.60;;;;;;;;;;5052041;28;19923;-62
2021/08/16 12:08:36;;;;;;;3.15;0.88;;;;;;;;;;5052302;28;20299;-63
2021/08/16 12:11:12;;;;;;;2.95;0.70;;;;;;;;;;5062889;28;20043;-62
2021/08/16 12:13:38;;;;;;;3.78;0.73;;;;;;;;;;5067049;28;20043;-61
2021/08/16 12:16:04;;;;;;;1.13;0.52;;;;;;;;;;5066781;28;20021;-61
2021/08/16 12:18:30;;;;;;;1.15;0.55;;;;;;;;;;5053296;28;20044;-60
2021/08/16 12:20:56;;;;;;;2.30;0.50;;;;;;;;;;5053250;28;20060;-61
2021/08/16 12:23:27;;;;;;;0.85;0.55;;;;;;;;;;5059225;28;20056;-62
2021/08/16 12:25:54;;;;;;;1.25;0.40;;;;;;;;;;5078772;28;20038;-60
2021/08/16 12:28:19;;;;;;;2.83;0.50;;;;;;;;;;5077642;28;20025;-62
2021/08/16 12:30:44;;;;;;;0.32;0.30;;;;;;;;;;5067478;28;20036;-60
2021/08/16 12:33:10;;;;;;;2.55;0.40;;;;;;;;;;5069248;28;20513;-61
2021/08/16 12:35:36;;;;;;;0.68;0.30;;;;;;;;;;5059341;28;20672;-61
2021/08/16 12:38:03;;;;;;;3.67;0.57;;;;;;;;;;5062724;28;20033;-63
2021/08/16 12:40:29;;;;;;;1.48;0.30;;;;;;;;;;5052895;28;20028;-62
2021/08/16 12:42:58;;;;;;;0.93;0.28;;;;;;;;;;5056027;28;20025;-62
2021/08/16 12:45:23;;;;;;;2.63;0.40;;;;;;;;;;5056822;28;20108;-63
2021/08/16 12:48:02;;;;;;;2.15;0.45;;;;;;;;;;5063239;28;20111;-61
2021/08/16 12:50:29;;;;;;;1.83;0.50;;;;;;;;;;5071309;28;20040;-62
2021/08/16 12:52:54;;;;;;;;;;;;;;;;;;5069424;28;20039;-60
2021/08/16 12:55:20;;;;;;;3.07;0.83;;;;;;;;;;5065101;28;19912;-61
2021/08/16 12:57:45;;;;;;;3.45;0.65;;;;;;;;;;5067874;28;20055;-60
2021/08/16 13:00:11;;;;;;;2.33;0.80;;;;;;;;;;5065200;28;20086;-62
2021/08/16 13:02:36;;;;;;;1.35;0.63;;;;;;;;;;5070356;28;20024;-62
2021/08/16 13:05:02;;;;;;;1.30;0.60;;;;;;;;;;5064887;28;20029;-60
2021/08/16 13:07:27;;;;;;;1.98;0.70;;;;;;;;;;5067593;28;20095;-62
2021/08/16 13:09:53;;;;;;;2.70;0.57;;;;;;;;;;5065976;28;20029;-62
2021/08/16 13:12:18;;;;;;;2.08;0.40;;;;;;;;;;5065594;28;20059;-63
2021/08/16 13:14:44;;;;;;;1.58;0.50;;;;;;;;;;5066441;28;20040;-62
2021/08/16 13:17:09;;;;;;;2.30;0.55;;;;;;;;;;5067234;28;20032;-61
2021/08/16 13:19:35;;;;;;;0.50;0.50;;;;;;;;;;5066443;28;20032;-61
2021/08/16 13:22:03;;;;;;;1.33;0.60;;;;;;;;;;5084679;28;20094;-62
2021/08/16 13:24:28;;;;;;;2.70;0.57;;;;;;;;;;5087416;28;20035;-61
2021/08/16 13:26:54;;;;;;;2.25;0.55;;;;;;;;;;5083443;28;20016;-60
2021/08/16 13:29:20;;;;;;;2.45;0.68;;;;;;;;;;5086208;28;20107;-63
2021/08/16 13:31:46;;;;;;;2.50;0.47;;;;;;;;;;5087248;28;20035;-62
2021/08/16 13:34:11;;;;;;;1.25;0.52;;;;;;;;;;5077030;28;20045;-61
2021/08/16 13:36:37;;;;;;;1.48;0.65;;;;;;;;;;5066489;28;20047;-61
2021/08/16 13:39:02;;;;;;;1.73;0.55;;;;;;;;;;5069824;28;20024;-62
2021/08/16 13:41:28;;;;;;;6.00;0.93;;;;;;;;;;5069210;28;20028;-61
2021/08/16 13:43:53;;;;;;;6.10;1.30;;;;;;;;;;5070407;28;20345;-62
2021/08/16 13:46:18;;;;;;;5.63;1.35;;;;;;;;;;5070427;28;20036;-60
2021/08/16 13:48:47;;;;;;;10.27;2.38;;;;;;;;;;5068228;28;20025;-61
2021/08/16 13:51:12;;;;;;;7.13;2.47;;;;;;;;;;5080641;28;20031;-65
2021/08/16 13:53:37;;;;;;;6.68;3.38;;;;;;;;;;5091245;28;20344;-63
2021/08/16 13:56:03;;;;;;;6.78;3.90;;;;;;;;;;5089807;28;20043;-63
2021/08/16 13:58:28;;;;;;;7.63;4.57;;;;;;;;;;5089672;28;20028;-63
2021/08/16 14:00:54;;;;;;;8.30;5.07;;;;;;;;;;5082124;28;20268;-64
2021/08/16 14:03:19;;;;;;;8.38;4.72;;;;;;;;;;5068806;28;20029;-62
2021/08/16 14:05:46;;;;;;;10.00;5.75;;;;;;;;;;5081110;28;20020;-62
2021/08/16 14:08:12;;;;;;;8.90;5.57;;;;;;;;;;5081171;28;20032;-62
2021/08/16 14:10:37;;;;;;;10.00;6.18;;;;;;;;;;5069912;28;20389;-64
2021/08/16 14:13:03;;;;;;;11.55;6.10;;;;;;;;;;5068965;28;20028;-64
2021/08/16 14:15:28;;;;;;;11.27;6.28;;;;;;;;;;5068908;28;20062;-62
2021/08/16 14:17:54;;;;;;;13.80;8.10;;;;;;;;;;5070786;28;20432;-64
2021/08/16 14:20:19;;;;;;;12.00;7.65;;;;;;;;;;5058910;28;20031;-63
2021/08/16 14:22:45;;;;;;;18.85;9.90;;;;;;;;;;5088055;28;20089;-61
2021/08/16 14:25:11;;;;;;;19.45;10.93;;;;;;;;;;5089174;28;20028;-63
2021/08/16 14:27:36;;;;;;;20.77;11.68;;;;;;;;;;5089062;28;20085;-60
2021/08/16 14:30:02;;;;;;;20.30;12.05;;;;;;;;;;5065135;28;20032;-63
2021/08/16 14:32:33;;;;;;;21.08;11.65;;;;;;;;;;5068389;28;20090;-63
2021/08/16 14:34:59;;;;;;;20.63;12.48;;;;;;;;;;5064688;28;20028;-63
2021/08/16 14:37:25;;;;;;;18.77;11.70;;;;;;;;;;5067598;28;20280;-63
2021/08/16 14:39:50;;;;;;;22.50;12.52;;;;;;;;;;5065147;28;20028;-62